地図

経路データ

SID SEASON NUMBER BASIN SUBBASIN NAME ISO_TIME NATURE LAT LON WMO_WIND WMO_PRES WMO_AGENCY TRACK_TYPE DIST2LAND LANDFALL IFLAG USA_AGENCY USA_ATCF_ID USA_LAT USA_LON USA_RECORD USA_STATUS USA_WIND USA_PRES USA_SSHS USA_R34_NE USA_R34_SE USA_R34_SW USA_R34_NW USA_R50_NE USA_R50_SE USA_R50_SW USA_R50_NW USA_R64_NE USA_R64_SE USA_R64_SW USA_R64_NW USA_POCI USA_ROCI USA_RMW USA_EYE TOKYO_LAT TOKYO_LON TOKYO_GRADE TOKYO_WIND TOKYO_PRES TOKYO_R50_DIR TOKYO_R50_LONG TOKYO_R50_SHORT TOKYO_R30_DIR TOKYO_R30_LONG TOKYO_R30_SHORT TOKYO_LAND CMA_LAT CMA_LON CMA_CAT CMA_WIND CMA_PRES HKO_LAT HKO_LON HKO_CAT HKO_WIND HKO_PRES NEWDELHI_LAT NEWDELHI_LON NEWDELHI_GRADE NEWDELHI_WIND NEWDELHI_PRES NEWDELHI_CI NEWDELHI_DP NEWDELHI_POCI REUNION_LAT REUNION_LON REUNION_TYPE REUNION_WIND REUNION_PRES REUNION_TNUM REUNION_CI REUNION_RMW REUNION_R34_NE REUNION_R34_SE REUNION_R34_SW REUNION_R34_NW REUNION_R50_NE REUNION_R50_SE REUNION_R50_SW REUNION_R50_NW REUNION_R64_NE REUNION_R64_SE REUNION_R64_SW REUNION_R64_NW BOM_LAT BOM_LON BOM_TYPE BOM_WIND BOM_PRES BOM_TNUM BOM_CI BOM_RMW BOM_R34_NE BOM_R34_SE BOM_R34_SW BOM_R34_NW BOM_R50_NE BOM_R50_SE BOM_R50_SW BOM_R50_NW BOM_R64_NE BOM_R64_SE BOM_R64_SW BOM_R64_NW BOM_ROCI BOM_POCI BOM_EYE BOM_POS_METHOD BOM_PRES_METHOD NADI_LAT NADI_LON NADI_CAT NADI_WIND NADI_PRES WELLINGTON_LAT WELLINGTON_LON WELLINGTON_WIND WELLINGTON_PRES DS824_LAT DS824_LON DS824_STAGE DS824_WIND DS824_PRES TD9636_LAT TD9636_LON TD9636_STAGE TD9636_WIND TD9636_PRES TD9635_LAT TD9635_LON TD9635_WIND TD9635_PRES TD9635_ROCI NEUMANN_LAT NEUMANN_LON NEUMANN_CLASS NEUMANN_WIND NEUMANN_PRES MLC_LAT MLC_LON MLC_CLASS MLC_WIND MLC_PRES USA_GUST BOM_GUST BOM_GUST_PER REUNION_GUST REUNION_GUST_PER USA_SEAHGT USA_SEARAD_NE USA_SEARAD_SE USA_SEARAD_SW USA_SEARAD_NW STORM_SPEED STORM_DIR
1935292N13279 1935 61 NA CS NOT_NAMED 1935-10-18 12:00:00 TS 13.2000 -81.0000 25 hurdat_atl main 267 267 O_____________ hurdat_atl AL061935 13.2000 -81.0000 TD 25 -1 7 92
1935292N13279 1935 61 NA CS NOT_NAMED 1935-10-18 15:00:00 TS 13.1901 -80.6525 main 296 296 P_____________ AL061935 13.1901 -80.6525 TD 25 -1 7 90
1935292N13279 1935 61 NA CS NOT_NAMED 1935-10-18 18:00:00 TS 13.2000 -80.3000 25 hurdat_atl main 336 336 O_____________ hurdat_atl AL061935 13.2000 -80.3000 TD 25 -1 7 86
1935292N13279 1935 61 NA CS NOT_NAMED 1935-10-18 21:00:00 TS 13.2425 -79.9425 main 377 373 P_____________ AL061935 13.2425 -79.9425 TD 27 -1 7 82
1935292N13279 1935 61 NA CS NOT_NAMED 1935-10-19 00:00:00 TS 13.3000 -79.6000 30 hurdat_atl main 404 404 O_____________ hurdat_atl AL061935 13.3000 -79.6000 TD 30 -1 6 80
1935292N13279 1935 61 NA CS NOT_NAMED 1935-10-19 03:00:00 TS 13.3500 -79.2850 main 425 425 P_____________ AL061935 13.3500 -79.2850 TD 30 -1 6 80
1935292N13279 1935 61 NA CS NOT_NAMED 1935-10-19 06:00:00 TS 13.4000 -79.0000 30 hurdat_atl main 436 436 O_____________ hurdat_atl AL061935 13.4000 -79.0000 TD 30 -1 6 81
1935292N13279 1935 61 NA CS NOT_NAMED 1935-10-19 09:00:00 TS 13.4350 -78.7200 main 438 438 P_____________ AL061935 13.4350 -78.7200 TD 32 -1 5 78
1935292N13279 1935 61 NA CS NOT_NAMED 1935-10-19 12:00:00 TS 13.5000 -78.5000 35 hurdat_atl main 452 452 O_____________ hurdat_atl AL061935 13.5000 -78.5000 TS 35 0 4 61
1935292N13279 1935 61 NA CS NOT_NAMED 1935-10-19 15:00:00 TS 13.6275 -78.3700 main 460 452 P_____________ AL061935 13.6275 -78.3700 TS 35 0 4 33
1935292N13279 1935 61 NA CS NOT_NAMED 1935-10-19 18:00:00 TS 13.8000 -78.3000 35 hurdat_atl main 452 427 O_____________ hurdat_atl AL061935 13.8000 -78.3000 TS 35 0 4 20
1935292N13279 1935 61 NA CS NOT_NAMED 1935-10-19 21:00:00 TS 13.9850 -78.2425 main 427 406 P_____________ AL061935 13.9850 -78.2425 TS 37 0 4 13
1935292N13279 1935 61 NA CS NOT_NAMED 1935-10-20 00:00:00 TS 14.2000 -78.2000 40 hurdat_atl main 406 384 O_____________ hurdat_atl AL061935 14.2000 -78.2000 TS 40 0 5 11
1935292N13279 1935 61 NA CS NOT_NAMED 1935-10-20 03:00:00 TS 14.4425 -78.1500 main 381 349 P_____________ AL061935 14.4425 -78.1500 TS 40 0 5 11
1935292N13279 1935 61 NA CS NOT_NAMED 1935-10-20 06:00:00 TS 14.7000 -78.1000 40 hurdat_atl main 349 327 O_____________ hurdat_atl AL061935 14.7000 -78.1000 TS 40 0 5 10
1935292N13279 1935 61 NA CS NOT_NAMED 1935-10-20 09:00:00 TS 14.9425 -78.0574 main 327 292 P_____________ AL061935 14.9425 -78.0574 TS 40 0 5 11
1935292N13279 1935 61 NA CS NOT_NAMED 1935-10-20 12:00:00 TS 15.2000 -78.0000 40 hurdat_atl main 292 257 O_____________ hurdat_atl AL061935 15.2000 -78.0000 TS 40 0 6 14
1935292N13279 1935 61 NA CS NOT_NAMED 1935-10-20 15:00:00 TS 15.4850 -77.9150 main 257 222 P_____________ AL061935 15.4850 -77.9150 TS 40 0 6 18
1935292N13279 1935 61 NA CS NOT_NAMED 1935-10-20 18:00:00 TS 15.8000 -77.8000 40 hurdat_atl main 222 186 O_____________ hurdat_atl AL061935 15.8000 -77.8000 TS 40 0 7 20
1935292N13279 1935 61 NA CS NOT_NAMED 1935-10-20 21:00:00 TS 16.1425 -77.6650 main 186 138 P_____________ AL061935 16.1425 -77.6650 TS 42 0 8 22
1935292N13279 1935 61 NA CS NOT_NAMED 1935-10-21 00:00:00 TS 16.5000 -77.5000 45 hurdat_atl main 138 101 O_____________ hurdat_atl AL061935 16.5000 -77.5000 TS 45 0 8 26
1935292N13279 1935 61 NA CS NOT_NAMED 1935-10-21 03:00:00 TS 16.8575 -77.3075 main 90 56 P_____________ AL061935 16.8575 -77.3075 TS 45 0 8 29
1935292N13279 1935 61 NA CS NOT_NAMED 1935-10-21 06:00:00 TS 17.2000 -77.1000 45 hurdat_atl main 56 35 O_____________ hurdat_atl AL061935 17.2000 -77.1000 TS 45 0 8 31
1935292N13279 1935 61 NA CS NOT_NAMED 1935-10-21 09:00:00 TS 17.5150 -76.8925 main 35 11 P_____________ AL061935 17.5150 -76.8925 TS 47 0 7 32
1935292N13279 1935 61 NA CS NOT_NAMED 1935-10-21 12:00:00 TS 17.8000 -76.7000 50 995 hurdat_atl main 11 0 O_____________ hurdat_atl AL061935 17.8000 -76.7000 TS 50 995 0 6 32
1935292N13279 1935 61 NA CS NOT_NAMED 1935-10-21 15:00:00 TS 18.0575 -76.5349 main 0 0 P_____________ AL061935 18.0575 -76.5349 TS 52 0 6 30
1935292N13279 1935 61 NA CS NOT_NAMED 1935-10-21 18:00:00 TS 18.3000 -76.4000 55 hurdat_atl main 11 11 O_____________ hurdat_atl AL061935 18.3000 -76.4000 TS 55 0 5 26
1935292N13279 1935 61 NA CS NOT_NAMED 1935-10-21 21:00:00 TS 18.5500 -76.2850 main 33 33 P_____________ AL061935 18.5500 -76.2850 TS 57 0 5 21
1935292N13279 1935 61 NA CS NOT_NAMED 1935-10-22 00:00:00 TS 18.8000 -76.2000 60 hurdat_atl main 67 67 O_____________ hurdat_atl AL061935 18.8000 -76.2000 TS 60 0 5 16
1935292N13279 1935 61 NA CS NOT_NAMED 1935-10-22 03:00:00 TS 19.0575 -76.1350 main 100 78 P_____________ AL061935 19.0575 -76.1350 TS 62 0 5 11
1935292N13279 1935 61 NA CS NOT_NAMED 1935-10-22 06:00:00 TS 19.3000 -76.1000 65 hurdat_atl main 78 55 O_____________ hurdat_atl AL061935 19.3000 -76.1000 HU 65 1 5 8
1935292N13279 1935 61 NA CS NOT_NAMED 1935-10-22 09:00:00 TS 19.5225 -76.0625 main 55 33 P_____________ AL061935 19.5225 -76.0625 HU 70 1 4 0
1935292N13279 1935 61 NA CS NOT_NAMED 1935-10-22 12:00:00 TS 19.7000 -76.1000 75 hurdat_atl main 33 22 O_____________ hurdat_atl AL061935 19.7000 -76.1000 HU 75 1 4 329
1935292N13279 1935 61 NA CS NOT_NAMED 1935-10-22 15:00:00 TS 19.8375 -76.2699 main 22 11 P_____________ AL061935 19.8375 -76.2699 HU 75 1 4 298
1935292N13279 1935 61 NA CS NOT_NAMED 1935-10-22 18:00:00 TS 19.9000 -76.5000 75 hurdat_atl main 11 11 O_____________ hurdat_atl AL061935 19.9000 -76.5000 HU 75 1 4 277
1935292N13279 1935 61 NA CS NOT_NAMED 1935-10-22 21:00:00 TS 19.8875 -76.7000 main 11 11 P_____________ AL061935 19.8875 -76.7000 HU 70 1 4 255
1935292N13279 1935 61 NA CS NOT_NAMED 1935-10-23 00:00:00 TS 19.8000 -76.9000 65 hurdat_atl main 15 11 O_____________ hurdat_atl AL061935 19.8000 -76.9000 HU 65 1 4 240
1935292N13279 1935 61 NA CS NOT_NAMED 1935-10-23 03:00:00 TS 19.6725 -77.0925 main 22 22 P_____________ AL061935 19.6725 -77.0925 HU 60 0 5 231
1935292N13279 1935 61 NA CS NOT_NAMED 1935-10-23 06:00:00 TS 19.5000 -77.3000 55 hurdat_atl main 44 44 O_____________ hurdat_atl AL061935 19.5000 -77.3000 TS 55 0 6 229
1935292N13279 1935 61 NA CS NOT_NAMED 1935-10-23 09:00:00 TS 19.3075 -77.5350 main 59 56 P_____________ AL061935 19.3075 -77.5350 TS 52 0 6 230
1935292N13279 1935 61 NA CS NOT_NAMED 1935-10-23 12:00:00 TS 19.1000 -77.8000 50 hurdat_atl main 78 55 O_____________ hurdat_atl AL061935 19.1000 -77.8000 TS 50 0 7 232
1935292N13279 1935 61 NA CS NOT_NAMED 1935-10-23 15:00:00 TS 18.8999 -78.0849 main 55 33 P_____________ AL061935 18.8999 -78.0849 TS 50 0 7 235
1935292N13279 1935 61 NA CS NOT_NAMED 1935-10-23 18:00:00 TS 18.7000 -78.4000 50 hurdat_atl main 35 30 O_____________ hurdat_atl AL061935 18.7000 -78.4000 TS 50 0 7 237
1935292N13279 1935 61 NA CS NOT_NAMED 1935-10-23 21:00:00 TS 18.5000 -78.7424 main 43 43 P_____________ AL061935 18.5000 -78.7424 TS 52 0 8 239
1935292N13279 1935 61 NA CS NOT_NAMED 1935-10-24 00:00:00 TS 18.3000 -79.1000 55 hurdat_atl main 74 74 O_____________ hurdat_atl AL061935 18.3000 -79.1000 TS 55 0 8 239
1935292N13279 1935 61 NA CS NOT_NAMED 1935-10-24 03:00:00 TS 18.0999 -79.4499 main 106 106 P_____________ AL061935 18.0999 -79.4499 TS 57 0 8 239
1935292N13279 1935 61 NA CS NOT_NAMED 1935-10-24 06:00:00 TS 17.9000 -79.8000 60 hurdat_atl main 151 151 O_____________ hurdat_atl AL061935 17.9000 -79.8000 TS 60 0 8 240
1935292N13279 1935 61 NA CS NOT_NAMED 1935-10-24 09:00:00 TS 17.7075 -80.1574 main 198 198 P_____________ AL061935 17.7075 -80.1574 TS 60 0 8 239
1935292N13279 1935 61 NA CS NOT_NAMED 1935-10-24 12:00:00 TS 17.5000 -80.5000 60 988 hurdat_atl main 235 235 O_____________ hurdat_atl AL061935 17.5000 -80.5000 TS 60 988 0 8 235
1935292N13279 1935 61 NA CS NOT_NAMED 1935-10-24 15:00:00 TS 17.2649 -80.8149 main 273 273 P_____________ AL061935 17.2649 -80.8149 TS 62 0 8 229
1935292N13279 1935 61 NA CS NOT_NAMED 1935-10-24 18:00:00 TS 17.0000 -81.1000 65 hurdat_atl main 309 270 O_____________ hurdat_atl AL061935 17.0000 -81.1000 HU 65 1 8 223
1935292N13279 1935 61 NA CS NOT_NAMED 1935-10-24 21:00:00 TS 16.7074 -81.3499 main 270 224 P_____________ AL061935 16.7074 -81.3499 HU 65 1 8 219
1935292N13279 1935 61 NA CS NOT_NAMED 1935-10-25 00:00:00 TS 16.4000 -81.6000 65 hurdat_atl main 224 178 O_____________ hurdat_atl AL061935 16.4000 -81.6000 HU 65 1 8 220
1935292N13279 1935 61 NA CS NOT_NAMED 1935-10-25 03:00:00 TS 16.0925 -81.8925 main 178 131 P_____________ AL061935 16.0925 -81.8925 HU 67 1 8 224
1935292N13279 1935 61 NA CS NOT_NAMED 1935-10-25 06:00:00 TS 15.8000 -82.2000 70 hurdat_atl main 131 93 O_____________ hurdat_atl AL061935 15.8000 -82.2000 HU 70 1 8 227
1935292N13279 1935 61 NA CS NOT_NAMED 1935-10-25 09:00:00 TS 15.5425 -82.4999 main 85 46 P_____________ AL061935 15.5425 -82.4999 HU 72 1 8 229
1935292N13279 1935 61 NA CS NOT_NAMED 1935-10-25 12:00:00 TS 15.3000 -82.8000 75 hurdat_atl main 46 11 O_____________ hurdat_atl AL061935 15.3000 -82.8000 HU 75 1 8 229
1935292N13279 1935 61 NA CS NOT_NAMED 1935-10-25 15:00:00 TS 15.0499 -83.0924 main 0 0 P_____________ AL061935 15.0499 -83.0924 HU 67 1 8 229
1935292N13279 1935 61 NA CS NOT_NAMED 1935-10-25 18:00:00 TS 14.8000 -83.4000 60 hurdat_atl main 0 0 O_____________ hurdat_atl AL061935 14.8000 -83.4000 TS 60 0 8 231
1935292N13279 1935 61 NA NA NOT_NAMED 1935-10-25 21:00:00 TS 14.5424 -83.7350 main 0 0 P_____________ AL061935 14.5424 -83.7350 TS 50 0 8 234
1935292N13279 1935 61 NA NA NOT_NAMED 1935-10-26 00:00:00 TS 14.3000 -84.1000 40 hurdat_atl main 0 0 O_____________ hurdat_atl AL061935 14.3000 -84.1000 TS 40 0 9 236
1935292N13279 1935 61 NA NA NOT_NAMED 1935-10-26 03:00:00 TS 14.0698 -84.4700 main 0 0 P_____________ AL061935 14.0698 -84.4700 TS 35 0 9 243
1935292N13279 1935 61 NA NA NOT_NAMED 1935-10-26 06:00:00 TS 13.9000 -84.9000 30 hurdat_atl main 0 0 O_____________ hurdat_atl AL061935 13.9000 -84.9000 TD 30 -1 10 254
1935292N13279 1935 61 NA NA NOT_NAMED 1935-10-26 09:00:00 TS 13.8125 -85.4200 main 0 0 P_____________ AL061935 13.8125 -85.4200 TD 30 -1 11 265
1935292N13279 1935 61 NA NA NOT_NAMED 1935-10-26 12:00:00 TS 13.8000 -86.0000 30 hurdat_atl main 0 0 O_____________ hurdat_atl AL061935 13.8000 -86.0000 TD 30 -1 11 270
1935292N13279 1935 61 NA NA NOT_NAMED 1935-10-26 15:00:00 TS 13.8199 -86.5925 main 0 0 P_____________ AL061935 13.8199 -86.5925 TD 27 -1 12 275
1935292N13279 1935 61 NA NA NOT_NAMED 1935-10-26 18:00:00 TS 13.9000 -87.2000 25 hurdat_atl main 0 0 O_____________ hurdat_atl AL061935 13.9000 -87.2000 TD 25 -1 12 280
1935292N13279 1935 61 NA NA NOT_NAMED 1935-10-26 21:00:00 TS 14.0349 -87.8000 main 0 0 P_____________ AL061935 14.0349 -87.8000 TD 25 -1 12 284
1935292N13279 1935 61 NA NA NOT_NAMED 1935-10-27 00:00:00 TS 14.2000 -88.4000 25 hurdat_atl main 0 0 O_____________ hurdat_atl AL061935 14.2000 -88.4000 TD 25 -1 12 285
1935292N13279 1935 61 NA NA NOT_NAMED 1935-10-27 03:00:00 TS 14.3553 -88.9999 main 0 0 P_____________ AL061935 14.3553 -88.9999 TD 25 -1 12 284
1935292N13279 1935 61 NA NA NOT_NAMED 1935-10-27 06:00:00 TS 14.5000 -89.6000 25 hurdat_atl main 0 O_____________ hurdat_atl AL061935 14.5000 -89.6000 TD 25 -1 12 284

IBTrACS Databaseについて

本データベースは、米国NOAAが公開する1842年以降の世界の熱帯低気圧のベストトラックデータアーカイブInternational Best Track Archive for Climate Stewardship (IBTrACS)を、ウェブで閲覧しやすい形式に変換したものです。

最終更新日:2021-11-26